Aberdeen, OH

9:41 PM EDT on August 22, 2014 (GMT -0400)
Butler County Regional | Change Station
CLOSE
Current Station
Airport
Location: Hamilton,
Elevation: 633 ft
Nearby Weather Stations

Elev 633 ft 39.36 °N, 84.52 °W | Updated 48 minutes ago

Clear
Clear
75 °F
Feels Like 75 °F
N
0
Wind Variable Wind from North

Today
High -- | Low -- °F
--% Chance of Precip.
Yesterday
High -- | Low -- °F
Precip. -- in
6:55 AM 8:19 PM
Waning Crescent, 6% visible
Pressure 29.96 in
Visibility 10.0 miles
Clouds Clear
Dew Point 74 °F
Humidity 96%
Rainfall 0.67 in
Snow Depth Not available.
UV 0 out of 12
Pollen 10.10 out of 12
Air Quality Not available.
Flu Activity Not available.
METAR KHAO 230053Z AUTO 00000KT 10SM CLR 24/23 A2998 RMK AO2 SLP146 T02390233

More Conditions Fewer Conditions

Pressure 29.96 in
Visibility 10.0 miles
Clouds Clear
Dew Point 74 °F
Humidity 96%
Rainfall 0.67 in
Snow Depth Not available.
UV 0 out of 12
Pollen 10.10 out of 12
Air Quality Not available.
Flu Activity Not available.
METAR KHAO 230053Z AUTO 00000KT 10SM CLR 24/23 A2998 RMK AO2 SLP146 T02390233

More Conditions Fewer Conditions

10-Day Weather Forecast

Almanac

Astronomy

Aug. 22, 2014 Rise Set
Actual Time 6:55 AM EDT 8:19 PM EDT
Civil Twilight 6:27 AM EDT 8:47 PM EDT
Nautical Twilight 5:53 AM EDT 9:20 PM EDT
Astronomical Twilight 5:18 AM EDT 9:55 PM EDT
Moon 4:17 AM EDT (8/22) 6:27 PM EDT (8/22)
Length of Visible Light 14h 20m
Length of Day
13h 24m
Tomorrow will be 2m 19s shorter.
Waning Crescent, 6% of the Moon is Illuminated
Today
Waning Crescent
Aug 25
New
Sep 2
First Quarter
Sep 8
Full
Sep 15
Last Quarter

Today's Extremes

State Highs State Lows

Community

WunderPhotos

Upload Photos

1,746,337 photos uploaded!

WunderBlogs® & News

Nearby

Snow Depth

Station Depth Elevation
No new snow has been reported.

Earthquake Activity

City Distance Mag. Time & Date
No recent earthquake activity has been reported nearby.
Minimum magnitude displayed is 2.5.

Coastal Water Temperatures

Place Temperature
No Stations Reporting

Nearby Weather Stations